Time;durP1;ratioP1;P1;durP2;ratioP2;P2;SDS_P1;SDS_P2;PMS_P1;PMS_P2;Temp;Humidity;BMP_temperature;BMP_pressure;BME280_temperature;BME280_humidity;BME280_pressure;Samples;Min_cycle;Max_cycle;Signal;HPM_P1;HPM_P2
2023/06/03 00:01:40;;;;;;;3.65;1.98;;;;;;;12.75;49.62;100208.81;10532433;28;20048;-59
2023/06/03 00:06:43;;;;;;;3.63;1.83;;;;;;;12.41;50.11;100223.22;10547464;27;20051;-59
2023/06/03 00:11:44;;;;;;;4.95;1.70;;;;;;;12.26;50.42;100215.44;10528468;28;20109;-59
2023/06/03 00:16:47;;;;;;;3.75;1.52;;;;;;;12.31;50.57;100214.25;10546542;27;20042;-59
2023/06/03 00:21:49;;;;;;;3.90;1.80;;;;;;;12.47;50.22;100207.13;10528853;27;20036;-58
2023/06/03 00:26:52;;;;;;;4.57;1.92;;;;;;;12.49;50.42;100209.63;10545409;27;20047;-58
2023/06/03 00:31:54;;;;;;;2.88;1.63;;;;;;;12.52;50.12;100218.13;10546678;28;20059;-59
2023/06/03 00:36:56;;;;;;;3.28;1.70;;;;;;;12.38;50.29;100219.94;10545290;28;20054;-59
2023/06/03 00:41:58;;;;;;;4.28;1.80;;;;;;;12.34;50.20;100216.69;10512504;28;20044;-59
2023/06/03 00:47:01;;;;;;;5.03;1.80;;;;;;;12.21;50.42;100215.72;10527036;28;20036;-58
2023/06/03 00:52:05;;;;;;;2.60;1.63;;;;;;;12.02;50.68;100220.41;10528291;28;20044;-59
2023/06/03 00:57:08;;;;;;;4.20;1.98;;;;;;;11.68;51.32;100210.28;10543448;28;20056;-59
2023/06/03 01:02:12;;;;;;;3.17;1.85;;;;;;;11.67;51.50;100214.69;10543403;27;20047;-59
2023/06/03 01:07:14;;;;;;;3.80;1.42;;;;;;;11.71;51.54;100212.72;10544739;27;20401;-59
2023/06/03 01:12:44;;;;;;;3.72;1.60;;;;;;;11.74;52.28;100208.16;10544673;28;20042;-58
2023/06/03 01:17:49;;;;;;;4.53;1.95;;;;;;;11.78;51.67;100203.56;10537038;28;20402;-59
2023/06/03 01:22:56;;;;;;;3.90;1.77;;;;;;;11.47;51.88;100207.16;10544736;28;20050;-59
2023/06/03 01:27:58;;;;;;;7.20;1.58;;;;;;;11.40;52.10;100205.81;10522270;28;20150;-59
2023/06/03 01:33:02;;;;;;;5.38;1.73;;;;;;;11.44;52.26;100207.31;10543366;28;20543;-58
2023/06/03 01:38:06;;;;;;;2.65;1.63;;;;;;;11.25;52.32;100207.56;10541726;28;20052;-57
2023/06/03 01:43:09;;;;;;;3.60;1.63;;;;;;;11.17;52.38;100211.56;10505286;28;20617;-57
2023/06/03 01:48:11;;;;;;;4.07;1.70;;;;;;;11.00;52.64;100211.66;10542272;28;20043;-57
2023/06/03 01:53:16;;;;;;;2.65;1.60;;;;;;;10.88;52.77;100207.97;10523782;28;20036;-57
2023/06/03 01:58:19;;;;;;;2.60;1.52;;;;;;;10.78;53.16;100204.19;10541542;28;20051;-58
2023/06/03 02:03:22;;;;;;;3.85;1.77;;;;;;;10.80;53.38;100204.94;10554463;28;20058;-58
2023/06/03 02:08:24;;;;;;;3.08;1.70;;;;;;;11.00;53.36;100202.03;10555051;28;20058;-58
2023/06/03 02:13:26;;;;;;;3.22;1.52;;;;;;;11.08;53.09;100192.00;10538302;28;20137;-57
2023/06/03 02:18:28;;;;;;;3.75;1.60;;;;;;;11.00;53.43;100186.31;10558057;27;20055;-58
2023/06/03 02:23:30;;;;;;;2.60;1.50;;;;;;;10.78;53.57;100185.88;10560364;27;20044;-57
2023/06/03 02:28:32;;;;;;;3.40;1.70;;;;;;;10.76;53.38;100192.09;10535950;27;20055;-57
2023/06/03 02:33:34;;;;;;;4.72;1.80;;;;;;;10.70;53.71;100193.31;10557813;28;20055;-57
2023/06/03 02:38:36;;;;;;;2.78;1.70;;;;;;;10.81;53.48;100201.38;10558636;27;20044;-57
2023/06/03 02:43:38;;;;;;;4.70;1.80;;;;;;;10.74;53.44;100202.66;10561154;28;20379;-57
2023/06/03 02:48:40;;;;;;;2.83;1.70;;;;;;;10.62;53.92;100198.13;10554298;28;20096;-58
2023/06/03 02:53:42;;;;;;;3.80;1.83;;;;;;;10.43;54.15;100202.66;10543407;27;20054;-58
2023/06/03 02:58:45;;;;;;;3.80;1.80;;;;;;;10.23;54.65;100208.13;10521793;28;20051;-57
2023/06/03 03:03:47;;;;;;;5.68;1.65;;;;;;;10.21;54.64;100217.84;10493169;28;20052;-58
2023/06/03 03:08:51;;;;;;;3.45;1.85;;;;;;;10.18;54.53;100226.69;10503980;28;20134;-57
2023/06/03 03:14:01;;;;;;;;;;;;;;;10.14;56.03;100232.13;10505217;28;20207;-57
2023/06/03 03:19:05;;;;;;;2.63;1.55;;;;;;;10.31;54.44;100238.19;10502530;28;19928;-58
2023/06/03 03:24:07;;;;;;;5.10;1.80;;;;;;;10.22;54.57;100237.81;10499524;28;20060;-58
2023/06/03 03:29:12;;;;;;;4.13;1.60;;;;;;;10.26;54.51;100242.78;10503270;28;20048;-58
2023/06/03 03:34:14;;;;;;;3.15;1.60;;;;;;;10.33;54.42;100249.41;10501130;28;20048;-58
2023/06/03 03:39:16;;;;;;;2.50;1.45;;;;;;;10.49;54.06;100244.16;10489911;28;20389;-57
2023/06/03 03:44:23;;;;;;;3.95;1.73;;;;;;;10.41;53.88;100238.50;10508292;28;20044;-58
2023/06/03 03:49:30;;;;;;;2.40;1.58;;;;;;;10.43;53.67;100242.75;10502391;28;20044;-58
2023/06/03 03:54:36;;;;;;;3.38;1.27;;;;;;;10.33;53.44;100253.78;10499741;28;20044;-58
2023/06/03 03:59:42;;;;;;;3.35;1.45;;;;;;;10.52;53.34;100246.63;10500866;28;20052;-57
2023/06/03 04:04:45;;;;;;;5.18;1.40;;;;;;;10.52;53.25;100252.69;10500248;28;20507;-58
2023/06/03 04:09:47;;;;;;;2.00;1.30;;;;;;;10.64;53.04;100251.19;10487359;28;20138;-57
2023/06/03 04:14:50;;;;;;;2.22;1.38;;;;;;;12.66;50.62;100244.34;10505304;28;20492;-57
2023/06/03 04:19:56;;;;;;;2.17;1.60;;;;;;;15.37;46.14;100240.34;10487071;28;20055;-58
2023/06/03 04:25:09;;;;;;;3.92;1.50;;;;;;;17.06;42.25;100230.59;10497471;28;20051;-58
2023/06/03 04:30:18;;;;;;;2.38;1.35;;;;;;;18.45;41.04;100224.84;10487051;28;20047;-58
2023/06/03 04:35:20;;;;;;;4.00;1.35;;;;;;;20.46;38.10;100214.94;10501858;28;20214;-58
2023/06/03 04:40:22;;;;;;;1.27;1.02;;;;;;;21.29;36.20;100211.19;10491272;28;20050;-58
2023/06/03 04:45:27;;;;;;;2.38;1.30;;;;;;;22.76;35.06;100218.16;10504343;28;21050;-58
2023/06/03 04:50:34;;;;;;;1.13;1.02;;;;;;;23.23;34.09;100216.53;10496559;28;20594;-58
2023/06/03 04:55:44;;;;;;;1.83;1.30;;;;;;;24.08;30.25;100200.81;10489070;28;20044;-58
2023/06/03 05:00:52;;;;;;;1.75;1.10;;;;;;;24.98;31.40;100205.59;10502334;28;20144;-58
2023/06/03 05:05:55;;;;;;;2.42;1.30;;;;;;;25.65;29.41;100203.13;10530629;28;20047;-58
2023/06/03 05:10:57;;;;;;;2.40;1.20;;;;;;;26.34;27.67;100196.53;10535105;28;20051;-58
2023/06/03 05:16:00;;;;;;;1.90;1.13;;;;;;;26.49;27.40;100186.59;10538111;27;20134;-59
2023/06/03 05:21:03;;;;;;;1.63;1.13;;;;;;;26.82;26.54;100189.69;10512635;28;20123;-58
2023/06/03 05:26:05;;;;;;;1.35;1.00;;;;;;;25.35;26.63;100193.31;10537450;28;20043;-59
2023/06/03 05:31:07;;;;;;;1.52;1.00;;;;;;;22.22;29.10;100201.56;10532019;27;20047;-60
2023/06/03 05:36:10;;;;;;;1.45;1.00;;;;;;;20.44;30.93;100216.09;10513606;28;20044;-58
2023/06/03 05:41:12;;;;;;;1.95;0.93;;;;;;;18.95;30.19;100212.41;10516691;28;20621;-58
2023/06/03 05:46:15;;;;;;;1.27;0.90;;;;;;;18.00;33.12;100212.91;10511711;28;20522;-58
2023/06/03 05:51:17;;;;;;;1.30;0.85;;;;;;;17.57;33.44;100215.72;10527638;28;20039;-58
2023/06/03 05:56:19;;;;;;;1.05;0.80;;;;;;;17.19;33.22;100210.97;10516813;28;20133;-58
2023/06/03 06:01:21;;;;;;;1.00;0.80;;;;;;;17.07;33.28;100219.91;10530176;28;20071;-58
2023/06/03 06:06:23;;;;;;;0.75;0.75;;;;;;;16.60;34.06;100215.81;10519267;28;20048;-59
2023/06/03 06:11:26;;;;;;;1.20;0.77;;;;;;;16.63;34.00;100210.28;10541680;28;20564;-59
2023/06/03 06:16:29;;;;;;;1.42;0.80;;;;;;;16.35;33.87;100217.84;10512238;28;20492;-58
2023/06/03 06:21:31;;;;;;;0.95;0.73;;;;;;;16.26;34.01;100218.59;10507780;28;20586;-58
2023/06/03 06:26:35;;;;;;;2.08;0.90;;;;;;;15.63;34.37;100219.97;10529953;28;20096;-59
2023/06/03 06:31:37;;;;;;;1.38;0.80;;;;;;;15.57;34.24;100223.03;10530663;28;20054;-58
2023/06/03 06:36:49;;;;;;;1.98;0.70;;;;;;;15.93;34.29;100216.78;10525871;28;20628;-58
2023/06/03 06:42:17;;;;;;;2.13;0.85;;;;;;;15.69;33.30;100208.97;10557848;28;20044;-58
2023/06/03 06:47:27;;;;;;;1.00;0.90;;;;;;;15.86;33.85;100216.41;10508467;28;20185;-59
2023/06/03 06:52:30;;;;;;;1.27;1.10;;;;;;;16.42;34.21;100213.78;10554088;28;20117;-58
2023/06/03 06:57:35;;;;;;;0.70;0.68;;;;;;;16.79;33.73;100212.53;10506151;28;20059;-58
2023/06/03 07:02:37;;;;;;;0.77;0.77;;;;;;;17.00;32.58;100202.84;10534406;28;20048;-58
2023/06/03 07:07:40;;;;;;;2.60;1.00;;;;;;;17.67;32.92;100204.22;10512688;28;20657;-58
2023/06/03 07:12:42;;;;;;;1.83;0.90;;;;;;;18.37;32.07;100206.13;10554646;27;20063;-58
2023/06/03 07:17:55;;;;;;;0.95;0.80;;;;;;;19.51;29.68;100194.84;10527702;28;20079;-59
2023/06/03 07:22:58;;;;;;;0.70;0.70;;;;;;;20.02;28.94;100195.28;10534873;28;20058;-59
2023/06/03 07:28:08;;;;;;;1.08;0.75;;;;;;;21.18;27.26;100190.13;10541659;27;20055;-58
2023/06/03 07:33:20;;;;;;;0.52;0.52;;;;;;;21.99;27.02;100195.09;10532607;28;20053;-59
2023/06/03 07:39:02;;;;;;;1.52;0.68;;;;;;;23.12;25.81;100188.38;10503543;28;20112;-58
2023/06/03 07:44:12;;;;;;;0.93;0.68;;;;;;;23.67;25.09;100172.53;10532382;28;20072;-59
2023/06/03 07:49:16;;;;;;;1.33;0.80;;;;;;;24.08;25.38;100181.31;10545357;27;20505;-58
2023/06/03 07:54:18;;;;;;;0.95;0.75;;;;;;;24.06;26.31;100178.75;10551274;27;20093;-59
2023/06/03 07:59:21;;;;;;;1.02;0.73;;;;;;;24.89;25.96;100193.31;10545869;28;20187;-59
2023/06/03 08:04:30;;;;;;;1.13;0.90;;;;;;;24.79;23.53;100186.50;10549808;27;20043;-59
2023/06/03 08:09:33;;;;;;;;;;;;;;;24.74;23.78;100188.88;10527447;28;20048;-59
2023/06/03 08:14:38;;;;;;;2.05;1.10;;;;;;;24.47;24.13;100197.34;10551932;27;19997;-59
2023/06/03 08:19:44;;;;;;;1.48;1.00;;;;;;;24.75;24.90;100185.19;10542399;28;20496;-60
2023/06/03 08:24:46;;;;;;;0.82;0.73;;;;;;;24.54;24.01;100188.44;10529982;28;20567;-59
2023/06/03 08:29:48;;;;;;;1.10;1.00;;;;;;;23.25;25.66;100196.69;10552021;28;20056;-58
2023/06/03 08:34:50;;;;;;;1.55;1.05;;;;;;;23.81;25.39;100179.84;10552368;27;20035;-58
2023/06/03 08:39:53;;;;;;;1.60;0.90;;;;;;;24.05;25.43;100170.91;10552412;27;20047;-58
2023/06/03 08:45:06;;;;;;;1.85;1.10;;;;;;;24.72;23.61;100173.00;10551974;28;20052;-58
2023/06/03 08:50:11;;;;;;;2.28;1.10;;;;;;;24.91;24.99;100180.59;10552463;28;20326;-58
2023/06/03 08:55:17;;;;;;;2.33;1.00;;;;;;;25.02;23.94;100169.44;10530471;28;20043;-59
2023/06/03 09:00:22;;;;;;;1.17;1.00;;;;;;;24.36;24.91;100181.69;10532361;27;20047;-59
2023/06/03 09:05:25;;;;;;;1.67;1.10;;;;;;;23.65;25.67;100185.22;10517625;28;20135;-59
2023/06/03 09:10:27;;;;;;;1.92;1.10;;;;;;;24.51;25.38;100174.59;10549723;27;20876;-58
2023/06/03 09:15:30;;;;;;;3.72;1.10;;;;;;;24.81;25.10;100179.13;10550761;28;20410;-59
2023/06/03 09:20:35;;;;;;;1.98;1.15;;;;;;;25.15;24.77;100171.53;10552744;28;20126;-59
2023/06/03 09:25:37;;;;;;;1.15;0.98;;;;;;;24.29;26.29;100170.84;10532051;28;20039;-58
2023/06/03 09:30:39;;;;;;;1.58;1.23;;;;;;;24.49;26.26;100180.09;10552216;28;20050;-59
2023/06/03 09:35:43;;;;;;;1.88;1.30;;;;;;;23.78;26.45;100180.16;10540663;27;20059;-59
2023/06/03 09:40:46;;;;;;;2.58;1.23;;;;;;;24.16;25.75;100187.44;10543099;28;20536;-59
2023/06/03 09:45:48;;;;;;;1.65;1.20;;;;;;;24.45;25.88;100183.34;10504455;28;20612;-60
2023/06/03 09:50:50;;;;;;;2.92;1.30;;;;;;;24.38;26.07;100177.00;10546795;28;20059;-60
2023/06/03 09:55:52;;;;;;;2.10;1.10;;;;;;;24.24;26.70;100166.03;10541959;28;20169;-60
2023/06/03 10:00:56;;;;;;;1.95;1.05;;;;;;;24.25;26.98;100177.56;10547672;28;20051;-59
2023/06/03 10:05:59;;;;;;;1.90;1.10;;;;;;;24.25;26.81;100166.84;10541501;28;20050;-60
2023/06/03 10:11:01;;;;;;;2.20;1.00;;;;;;;24.31;27.30;100166.16;10536983;28;20185;-59
2023/06/03 10:16:10;;;;;;;2.03;1.30;;;;;;;24.42;25.99;100167.63;10541723;28;20135;-59
2023/06/03 10:21:12;;;;;;;1.50;1.10;;;;;;;23.36;26.96;100175.03;10549415;28;20052;-59
2023/06/03 10:26:16;;;;;;;2.67;1.35;;;;;;;23.33;27.91;100161.19;10552318;28;20127;-59
2023/06/03 10:31:21;;;;;;;1.50;1.10;;;;;;;23.17;27.52;100158.50;10556232;28;20089;-59
2023/06/03 10:36:25;;;;;;;1.77;1.13;;;;;;;23.30;27.83;100153.50;10548585;28;20078;-59
2023/06/03 10:41:30;;;;;;;2.13;1.10;;;;;;;22.86;28.21;100149.50;10539239;27;20043;-59
2023/06/03 10:46:36;;;;;;;2.72;1.20;;;;;;;23.02;28.49;100153.00;10549357;27;20043;-59
2023/06/03 10:52:02;;;;;;;1.67;1.17;;;;;;;22.32;28.23;100161.47;10553108;27;20066;-59
2023/06/03 10:57:08;;;;;;;2.00;1.30;;;;;;;22.19;28.71;100156.59;10531519;28;20054;-59
2023/06/03 11:02:12;;;;;;;1.42;1.02;;;;;;;22.07;28.68;100147.22;10534709;27;20125;-59
2023/06/03 11:07:33;;;;;;;2.20;1.30;;;;;;;21.93;29.27;100153.09;10553666;27;20047;-59
2023/06/03 11:12:50;;;;;;;2.40;1.30;;;;;;;22.28;28.27;100160.13;10553762;28;20483;-59
2023/06/03 11:18:15;;;;;;;1.50;1.05;;;;;;;22.00;29.45;100148.84;10531831;27;20051;-59
2023/06/03 11:23:43;;;;;;;2.60;1.20;;;;;;;22.51;28.90;100143.41;10553787;27;20130;-59
2023/06/03 11:28:45;;;;;;;2.22;1.20;;;;;;;22.82;28.22;100140.16;10549576;27;20091;-58
2023/06/03 11:34:26;;;;;;;1.98;1.10;;;;;;;22.34;28.55;100144.34;10534973;27;20525;-59
2023/06/03 11:39:58;;;;;;;3.90;1.45;;;;;;;22.40;29.13;100142.84;10548906;28;20238;-60
2023/06/03 11:45:28;;;;;;;3.33;1.45;;;;;;;22.54;28.79;100151.06;10551218;28;20036;-59
2023/06/03 11:50:33;;;;;;;2.10;1.10;;;;;;;22.58;27.95;100141.75;10548601;27;20054;-60
2023/06/03 11:55:35;;;;;;;2.15;1.13;;;;;;;22.27;29.41;100142.50;10549123;28;20060;-60
2023/06/03 12:00:37;;;;;;;1.55;1.20;;;;;;;22.12;28.82;100138.75;10524194;28;20052;-60
2023/06/03 12:05:53;;;;;;;3.67;1.35;;;;;;;22.20;28.55;100133.47;10548072;27;20067;-60
2023/06/03 12:10:55;;;;;;;2.83;1.60;;;;;;;22.06;29.04;100140.25;10549370;27;20450;-59
2023/06/03 12:15:57;;;;;;;2.10;1.17;;;;;;;22.40;28.53;100124.19;10522878;28;20411;-60
2023/06/03 12:21:19;;;;;;;2.42;1.30;;;;;;;22.18;28.34;100124.78;10531427;27;20158;-59
2023/06/03 12:26:23;;;;;;;2.67;1.38;;;;;;;22.36;28.75;100129.03;10547662;27;20145;-60
2023/06/03 12:31:25;;;;;;;1.70;1.20;;;;;;;22.94;28.93;100104.16;10551264;28;20480;-59
2023/06/03 12:36:47;;;;;;;1.50;1.15;;;;;;;22.47;28.28;100106.56;10547855;28;20045;-59
2023/06/03 12:41:50;;;;;;;4.22;1.20;;;;;;;22.29;28.09;100120.00;10548339;27;20051;-60
2023/06/03 12:47:03;;;;;;;2.05;1.35;;;;;;;22.24;27.95;100113.50;10546376;27;20071;-60
2023/06/03 12:52:24;;;;;;;3.80;1.30;;;;;;;22.45;27.69;100108.56;10547536;28;20043;-60
2023/06/03 12:57:26;;;;;;;2.58;1.30;;;;;;;22.99;28.31;100099.13;10547661;28;20050;-59
2023/06/03 13:02:28;;;;;;;2.03;1.17;;;;;;;23.30;28.22;100100.97;10530013;28;20047;-59
2023/06/03 13:07:33;;;;;;;3.58;1.50;;;;;;;23.25;27.46;100084.63;10525250;27;20098;-59
2023/06/03 13:12:36;;;;;;;1.83;1.30;;;;;;;23.22;27.61;100092.97;10546285;27;20039;-59
2023/06/03 13:17:38;;;;;;;2.05;1.25;;;;;;;22.97;27.77;100090.47;10547286;28;20051;-59
2023/06/03 13:22:41;;;;;;;2.47;1.38;;;;;;;22.83;28.04;100091.13;10547716;28;20069;-60
2023/06/03 13:27:44;;;;;;;2.75;1.33;;;;;;;22.84;27.95;100087.50;10542588;27;20047;-60
2023/06/03 13:32:46;;;;;;;2.05;1.20;;;;;;;22.97;28.07;100093.97;10549822;28;20051;-60
2023/06/03 13:37:48;;;;;;;2.67;1.35;;;;;;;23.03;28.01;100079.97;10544901;28;20517;-59
2023/06/03 13:42:50;;;;;;;2.00;1.30;;;;;;;23.01;27.73;100083.81;10527128;28;20471;-59
2023/06/03 13:47:52;;;;;;;1.75;1.30;;;;;;;22.75;28.03;100096.47;10546228;27;20754;-59
2023/06/03 13:52:54;;;;;;;1.23;0.90;;;;;;;22.70;27.73;100087.09;10546212;28;20648;-59
2023/06/03 13:57:56;;;;;;;2.05;1.23;;;;;;;22.87;28.16;100076.47;10550565;28;20511;-59
2023/06/03 14:02:58;;;;;;;2.55;1.20;;;;;;;22.98;28.01;100068.16;10526153;27;20050;-59
2023/06/03 14:08:00;;;;;;;2.08;1.30;;;;;;;22.72;27.32;100068.25;10555460;28;20048;-59
2023/06/03 14:13:02;;;;;;;1.65;1.10;;;;;;;22.66;27.70;100066.25;10553171;27;20044;-59
2023/06/03 14:18:06;;;;;;;2.10;1.13;;;;;;;22.84;27.12;100050.97;10552767;27;20495;-59
2023/06/03 14:23:09;;;;;;;2.63;1.33;;;;;;;22.90;27.10;100065.47;10554300;28;20050;-60
2023/06/03 14:28:10;;;;;;;2.40;1.30;;;;;;;22.96;27.36;100049.66;10552369;28;20057;-59
2023/06/03 14:33:12;;;;;;;1.73;1.17;;;;;;;22.93;26.64;100041.13;10555889;27;20040;-60
2023/06/03 14:38:15;;;;;;;2.35;1.23;;;;;;;22.84;27.15;100039.47;10553158;27;20358;-59
2023/06/03 14:43:17;;;;;;;3.10;1.30;;;;;;;22.98;27.02;100042.31;10551694;27;20039;-59
2023/06/03 14:48:19;;;;;;;1.40;1.10;;;;;;;23.16;27.36;100044.78;10552877;27;20589;-59
2023/06/03 14:53:21;;;;;;;3.00;1.33;;;;;;;22.79;26.76;100039.13;10554757;28;20097;-59
2023/06/03 14:58:23;;;;;;;2.05;1.23;;;;;;;22.39;26.93;100038.06;10553789;28;20051;-59
2023/06/03 15:03:25;;;;;;;1.85;1.10;;;;;;;22.40;26.83;100046.91;10553877;27;20048;-59
2023/06/03 15:08:27;;;;;;;3.17;1.20;;;;;;;22.10;26.76;100045.69;10553541;28;20039;-59
2023/06/03 15:13:29;;;;;;;2.40;1.20;;;;;;;22.31;26.62;100037.25;10554128;28;20054;-59
2023/06/03 15:18:31;;;;;;;3.13;1.40;;;;;;;22.65;26.46;100040.63;10534310;28;20055;-59
2023/06/03 15:23:33;;;;;;;2.63;1.20;;;;;;;22.62;26.55;100038.25;10544298;27;20051;-59
2023/06/03 15:28:35;;;;;;;1.60;1.00;;;;;;;22.52;25.79;100026.94;10549751;28;20048;-60
2023/06/03 15:33:37;;;;;;;2.92;1.20;;;;;;;22.53;25.70;100036.59;10553823;28;20044;-59
2023/06/03 15:38:39;;;;;;;1.75;1.15;;;;;;;22.57;26.58;100016.63;10552191;28;20048;-59
2023/06/03 15:43:41;;;;;;;1.88;1.20;;;;;;;22.85;26.28;100019.78;10551878;28;20040;-59
2023/06/03 15:48:43;;;;;;;2.63;1.20;;;;;;;22.74;25.44;100028.16;10522380;27;20052;-59
2023/06/03 15:53:45;;;;;;;2.00;1.00;;;;;;;22.53;26.01;100028.63;10548586;27;20163;-59
2023/06/03 15:58:47;;;;;;;2.40;1.20;;;;;;;22.63;26.01;100026.63;10546847;27;20480;-59
2023/06/03 16:03:49;;;;;;;2.30;1.30;;;;;;;22.44;25.81;100010.94;10551445;27;20048;-59
2023/06/03 16:08:52;;;;;;;2.17;1.20;;;;;;;22.39;26.16;100014.09;10544337;28;20051;-59
2023/06/03 16:13:54;;;;;;;1.10;0.90;;;;;;;22.59;26.09;99999.47;10524969;27;20046;-59
2023/06/03 16:18:56;;;;;;;1.23;1.00;;;;;;;22.67;25.95;100007.47;10539717;27;20051;-59
2023/06/03 16:23:59;;;;;;;1.35;1.00;;;;;;;22.76;25.78;99997.63;10546578;28;20403;-59
2023/06/03 16:29:01;;;;;;;2.00;1.13;;;;;;;22.48;25.77;100009.59;10528928;28;20621;-59
2023/06/03 16:34:04;;;;;;;1.52;1.20;;;;;;;22.58;25.96;99997.78;10524579;28;20479;-59
2023/06/03 16:39:07;;;;;;;2.92;1.00;;;;;;;22.42;25.31;99996.94;10526060;28;20047;-60
2023/06/03 16:44:09;;;;;;;1.10;1.00;;;;;;;22.31;25.79;100006.09;10546466;28;20400;-59
2023/06/03 16:49:11;;;;;;;2.55;1.10;;;;;;;22.62;25.74;99996.44;10543888;28;20040;-59
2023/06/03 16:54:13;;;;;;;2.40;1.20;;;;;;;22.38;25.57;100012.44;10548340;28;20051;-59
2023/06/03 16:59:15;;;;;;;3.10;1.40;;;;;;;22.12;25.93;100003.75;10542523;27;20043;-59
2023/06/03 17:04:17;;;;;;;1.38;0.90;;;;;;;21.97;25.68;100007.97;10545783;28;20051;-59
2023/06/03 17:09:20;;;;;;;1.88;1.20;;;;;;;21.97;25.51;100015.97;10543494;28;20474;-59
2023/06/03 17:14:24;;;;;;;2.38;1.00;;;;;;;21.84;25.52;100015.63;10524074;28;20043;-59
2023/06/03 17:19:27;;;;;;;2.28;1.13;;;;;;;21.74;26.00;100017.59;10533559;28;20055;-59
2023/06/03 17:24:29;;;;;;;1.48;1.00;;;;;;;21.70;25.74;100021.56;10526176;28;20046;-59
2023/06/03 17:29:31;;;;;;;2.42;1.30;;;;;;;21.63;25.87;100004.56;10505831;28;20050;-59
2023/06/03 17:34:33;;;;;;;1.63;0.90;;;;;;;21.44;26.21;100012.75;10526515;28;20047;-59
2023/06/03 17:39:35;;;;;;;1.75;0.98;;;;;;;21.35;26.58;100005.75;10529148;28;20059;-60
2023/06/03 17:44:37;;;;;;;1.67;1.10;;;;;;;21.33;26.28;100002.41;10529607;28;20126;-59
2023/06/03 17:49:39;;;;;;;1.17;1.05;;;;;;;21.23;26.24;99996.34;10532109;28;20047;-59
2023/06/03 17:54:41;;;;;;;3.35;1.20;;;;;;;21.15;26.52;100012.25;10529952;28;20059;-59
2023/06/03 17:59:43;;;;;;;1.00;0.90;;;;;;;20.94;26.46;100010.81;10511453;28;20048;-59
2023/06/03 18:04:44;;;;;;;2.40;1.13;;;;;;;20.84;26.17;100015.38;10528001;28;20054;-59
2023/06/03 18:09:46;;;;;;;1.38;0.98;;;;;;;20.75;26.11;100018.13;10528238;28;20051;-59
2023/06/03 18:14:48;;;;;;;1.27;0.93;;;;;;;20.73;26.31;100020.09;10529160;28;20392;-59
2023/06/03 18:19:53;;;;;;;2.38;1.00;;;;;;;20.52;25.87;100023.03;10547119;28;20125;-59
2023/06/03 18:24:55;;;;;;;1.00;0.82;;;;;;;20.52;26.21;100035.50;10543820;28;20043;-59
2023/06/03 18:29:56;;;;;;;1.90;1.00;;;;;;;20.42;26.37;100030.25;10551183;28;20043;-59
2023/06/03 18:34:58;;;;;;;1.15;1.00;;;;;;;20.34;26.53;100037.34;10550668;28;20148;-60
2023/06/03 18:40:00;;;;;;;2.03;1.05;;;;;;;20.13;26.67;100032.31;10550958;28;20547;-59
2023/06/03 18:45:03;;;;;;;1.10;0.82;;;;;;;20.03;26.58;100047.47;10528000;27;20054;-59
2023/06/03 18:50:05;;;;;;;0.90;0.90;;;;;;;19.90;26.80;100053.13;10558180;27;20028;-59
2023/06/03 18:55:08;;;;;;;1.55;0.93;;;;;;;19.80;27.16;100054.09;10556856;28;20048;-59
2023/06/03 19:00:10;;;;;;;1.40;0.85;;;;;;;19.56;27.52;100059.09;10538174;28;20055;-59
2023/06/03 19:05:12;;;;;;;3.63;1.20;;;;;;;19.39;27.29;100066.84;10555080;27;20043;-59
2023/06/03 19:10:14;;;;;;;1.58;1.08;;;;;;;19.32;27.45;100068.38;10558339;28;20507;-59
2023/06/03 19:15:16;;;;;;;2.13;1.00;;;;;;;19.15;27.82;100071.78;10538448;28;20046;-61
2023/06/03 19:20:18;;;;;;;1.30;0.88;;;;;;;18.95;27.91;100070.09;10556404;27;20995;-62
2023/06/03 19:25:22;;;;;;;1.30;0.90;;;;;;;18.80;28.17;100082.13;10557562;28;20233;-61
2023/06/03 19:30:23;;;;;;;1.23;0.90;;;;;;;18.54;28.43;100087.13;10555378;28;20035;-62
2023/06/03 19:35:26;;;;;;;1.10;0.88;;;;;;;18.35;28.74;100097.72;10556500;27;20062;-61
2023/06/03 19:40:29;;;;;;;1.00;0.90;;;;;;;18.22;29.25;100105.06;10556691;28;20059;-61
2023/06/03 19:45:31;;;;;;;1.40;0.82;;;;;;;17.96;29.88;100105.63;10555071;28;20506;-61
2023/06/03 19:50:33;;;;;;;3.60;0.90;;;;;;;17.77;30.12;100111.72;10557241;28;20050;-61
2023/06/03 19:55:35;;;;;;;2.42;0.80;;;;;;;17.70;30.56;100121.13;10554669;27;20044;-61
2023/06/03 20:00:37;;;;;;;1.02;0.80;;;;;;;17.53;31.03;100133.16;10554720;28;20193;-62
2023/06/03 20:05:41;;;;;;;1.20;0.90;;;;;;;17.45;30.84;100132.97;10555136;28;20047;-61
2023/06/03 20:10:43;;;;;;;2.63;0.85;;;;;;;17.13;30.95;100132.19;10555330;28;20048;-61
2023/06/03 20:15:45;;;;;;;0.80;0.80;;;;;;;16.83;31.21;100138.19;10552889;27;20097;-62
2023/06/03 20:20:48;;;;;;;1.38;0.90;;;;;;;16.68;31.76;100136.81;10552509;28;20449;-61
2023/06/03 20:25:50;;;;;;;1.35;0.98;;;;;;;16.53;32.37;100142.50;10551431;28;20054;-61
2023/06/03 20:30:52;;;;;;;1.42;0.82;;;;;;;16.36;32.64;100138.56;10552323;27;20203;-62
2023/06/03 20:35:54;;;;;;;1.95;1.05;;;;;;;16.24;32.91;100150.09;10525082;28;21024;-61
2023/06/03 20:40:56;;;;;;;1.00;0.70;;;;;;;16.21;33.04;100156.44;10540044;27;20039;-62
2023/06/03 20:45:58;;;;;;;1.23;0.90;;;;;;;16.01;33.40;100153.69;10547354;27;20047;-62
2023/06/03 20:51:00;;;;;;;1.80;0.90;;;;;;;15.94;33.38;100152.50;10547463;27;20039;-62
2023/06/03 20:56:02;;;;;;;2.95;0.90;;;;;;;15.88;33.26;100152.97;10530987;27;20089;-62
2023/06/03 21:01:04;;;;;;;0.98;0.90;;;;;;;15.75;33.78;100158.38;10550254;28;20533;-62
2023/06/03 21:06:07;;;;;;;1.60;1.08;;;;;;;15.56;34.46;100165.16;10548500;28;20036;-62
2023/06/03 21:11:10;;;;;;;1.10;1.00;;;;;;;15.35;34.42;100172.88;10550443;27;20044;-62
2023/06/03 21:16:12;;;;;;;1.83;0.80;;;;;;;15.26;34.74;100178.84;10550308;27;20049;-62
2023/06/03 21:21:14;;;;;;;2.58;1.00;;;;;;;15.28;34.95;100176.94;10548969;28;20092;-61
2023/06/03 21:26:16;;;;;;;0.98;0.88;;;;;;;15.37;35.14;100169.19;10549638;28;20024;-62
2023/06/03 21:31:19;;;;;;;2.00;1.35;;;;;;;15.40;35.21;100173.38;10550192;27;20042;-62
2023/06/03 21:36:21;;;;;;;1.95;1.17;;;;;;;15.37;35.30;100182.34;10531998;27;20487;-62
2023/06/03 21:41:23;;;;;;;3.42;1.50;;;;;;;15.28;35.72;100184.84;10548541;28;20240;-62
2023/06/03 21:46:24;;;;;;;2.65;1.40;;;;;;;15.20;36.08;100179.31;10550268;28;20384;-62
2023/06/03 21:51:26;;;;;;;2.47;1.45;;;;;;;15.17;36.39;100188.28;10542142;28;20035;-61
2023/06/03 21:56:29;;;;;;;2.35;1.30;;;;;;;15.01;36.79;100194.81;10546551;28;20052;-62
2023/06/03 22:01:31;;;;;;;2.58;1.38;;;;;;;14.90;37.22;100197.41;10544993;28;20120;-63
2023/06/03 22:06:33;;;;;;;2.33;1.25;;;;;;;14.88;37.05;100196.66;10530883;28;20074;-62
2023/06/03 22:11:34;;;;;;;2.92;1.35;;;;;;;14.81;37.30;100198.06;10549040;28;20546;-62
2023/06/03 22:16:36;;;;;;;2.15;1.00;;;;;;;14.74;37.46;100202.06;10549938;28;20053;-62
2023/06/03 22:21:38;;;;;;;1.52;1.00;;;;;;;14.71;37.50;100207.56;10558240;28;20044;-62
2023/06/03 22:26:40;;;;;;;3.28;1.13;;;;;;;14.58;38.02;100208.47;10558001;27;20044;-62
2023/06/03 22:31:42;;;;;;;1.20;1.00;;;;;;;14.49;38.14;100213.56;10557109;28;20040;-62
2023/06/03 22:36:44;;;;;;;2.40;1.38;;;;;;;14.27;38.56;100213.34;10556639;27;20403;-63
2023/06/03 22:41:46;;;;;;;2.05;1.40;;;;;;;14.09;38.90;100207.59;10559294;28;20043;-62
2023/06/03 22:46:48;;;;;;;3.58;1.25;;;;;;;14.06;39.27;100210.44;10559512;28;20056;-62
2023/06/03 22:51:50;;;;;;;2.22;1.33;;;;;;;13.98;39.44;100211.91;10539939;28;20073;-63
2023/06/03 22:56:52;;;;;;;1.83;1.20;;;;;;;13.84;39.66;100215.47;10557998;28;20052;-63
2023/06/03 23:01:54;;;;;;;1.75;1.17;;;;;;;13.62;40.22;100228.41;10557995;27;20043;-63
2023/06/03 23:06:56;;;;;;;2.83;1.42;;;;;;;13.51;40.35;100226.53;10531428;28;20055;-63
2023/06/03 23:11:58;;;;;;;2.15;1.25;;;;;;;13.36;40.81;100226.66;10549783;28;20039;-64
2023/06/03 23:17:00;;;;;;;1.45;1.10;;;;;;;13.35;41.12;100222.34;10548268;28;20043;-63